createdAt,value
2022-10-03T00:00:22.652Z,8.30
2022-10-03T00:02:56.023Z,7.77
2022-10-03T00:05:38.740Z,13.23
2022-10-03T00:08:15.334Z,11.43
2022-10-03T00:10:58.103Z,10.47
2022-10-03T00:13:34.795Z,13.97
2022-10-03T00:16:13.366Z,9.30
2022-10-03T00:18:54.995Z,14.00
2022-10-03T00:21:22.252Z,11.97
2022-10-03T00:24:01.806Z,11.83
2022-10-03T00:26:47.904Z,8.77
2022-10-03T00:29:26.525Z,11.33
2022-10-03T00:32:03.227Z,8.87
2022-10-03T00:34:39.990Z,10.30
2022-10-03T00:37:27.461Z,8.80
2022-10-03T00:40:14.306Z,11.03
2022-10-03T00:42:54.558Z,12.30
2022-10-03T00:45:40.683Z,11.07
2022-10-03T00:48:26.471Z,11.57
2022-10-03T00:50:56.761Z,10.23
2022-10-03T00:53:30.071Z,10.27
2022-10-03T00:56:03.631Z,13.23
2022-10-03T00:58:39.289Z,11.90
2022-10-03T01:01:26.907Z,13.83
2022-10-03T01:03:57.207Z,12.43
2022-10-03T01:06:27.916Z,12.13
2022-10-03T01:09:27.766Z,12.87
2022-10-03T01:12:17.663Z,12.90
2022-10-03T01:14:51.457Z,11.57
2022-10-03T01:17:25.044Z,10.90
2022-10-03T01:20:10.667Z,13.57
2022-10-03T01:23:07.617Z,13.03
2022-10-03T01:25:50.486Z,14.97
2022-10-03T01:29:12.490Z,12.40
2022-10-03T01:31:59.402Z,12.47
2022-10-03T01:34:30.255Z,13.87
2022-10-03T01:37:17.033Z,13.07
2022-10-03T01:39:50.572Z,12.73
2022-10-03T01:42:41.309Z,13.40
2022-10-03T01:45:13.359Z,13.37
2022-10-03T01:47:48.380Z,15.13
2022-10-03T01:50:25.532Z,12.63
2022-10-03T01:53:05.186Z,13.13
2022-10-03T01:55:50.739Z,11.77
2022-10-03T01:58:27.193Z,12.00
2022-10-03T02:00:59.196Z,11.23
2022-10-03T02:03:35.654Z,11.17
2022-10-03T02:06:22.275Z,14.50
2022-10-03T02:08:49.741Z,11.57
2022-10-03T02:11:43.728Z,13.30
2022-10-03T02:14:11.173Z,13.23
2022-10-03T02:16:45.102Z,12.20
2022-10-03T02:19:25.024Z,11.57
2022-10-03T02:21:54.127Z,11.77
2022-10-03T02:24:28.045Z,14.77
2022-10-03T02:27:34.367Z,12.00
2022-10-03T02:30:01.997Z,11.27
2022-10-03T02:33:04.407Z,14.93
2022-10-03T02:35:31.600Z,12.40
2022-10-03T02:38:17.702Z,13.00
2022-10-03T02:40:51.006Z,11.60
2022-10-03T02:43:31.895Z,11.50
2022-10-03T02:46:05.397Z,12.87
2022-10-03T02:48:51.411Z,13.43
2022-10-03T02:51:27.735Z,10.63
2022-10-03T02:54:12.629Z,10.63
2022-10-03T02:56:53.006Z,12.33
2022-10-03T02:59:41.758Z,10.60
2022-10-03T03:02:29.351Z,12.80
2022-10-03T03:04:56.731Z,14.10
2022-10-03T03:07:38.403Z,12.03
2022-10-03T03:10:08.764Z,11.70
2022-10-03T03:12:41.385Z,12.20
2022-10-03T03:15:27.412Z,12.80
2022-10-03T03:18:04.345Z,13.00
2022-10-03T03:20:41.572Z,9.60
2022-10-03T03:23:14.952Z,10.53
2022-10-03T03:25:48.361Z,10.83
2022-10-03T03:28:41.988Z,11.73
2022-10-03T03:31:17.335Z,12.03
2022-10-03T03:33:44.589Z,11.37
2022-10-03T03:36:18.445Z,11.13
2022-10-03T03:38:52.013Z,11.37
2022-10-03T03:41:19.363Z,12.93
2022-10-03T03:43:46.648Z,12.20
2022-10-03T03:46:20.985Z,10.97
2022-10-03T03:48:49.096Z,11.37
2022-10-03T03:51:19.360Z,12.30
2022-10-03T03:54:06.998Z,12.90
2022-10-03T03:56:44.707Z,10.53
2022-10-03T03:59:30.511Z,12.30
2022-10-03T04:02:27.652Z,12.77
2022-10-03T04:05:15.130Z,10.97
2022-10-03T04:08:01.123Z,10.77
2022-10-03T04:10:28.341Z,12.97
2022-10-03T04:13:34.519Z,12.20
2022-10-03T04:16:11.011Z,13.30
2022-10-03T04:18:58.961Z,11.07
2022-10-03T04:21:45.675Z,12.57
2022-10-03T04:24:31.632Z,12.73
2022-10-03T04:27:02.085Z,10.70
2022-10-03T04:29:47.077Z,12.63
2022-10-03T04:32:17.380Z,11.43
2022-10-03T04:34:57.022Z,12.13
2022-10-03T04:37:33.487Z,14.03
2022-10-03T04:40:19.629Z,10.80
2022-10-03T04:42:53.271Z,12.07
2022-10-03T04:45:20.564Z,15.90
2022-10-03T04:47:57.897Z,13.00
2022-10-03T04:50:45.424Z,10.67
2022-10-03T04:53:30.376Z,10.13
2022-10-03T04:56:06.323Z,11.13
2022-10-03T04:58:33.594Z,11.93
2022-10-03T05:01:07.684Z,12.27
2022-10-03T05:03:35.003Z,11.40
2022-10-03T05:06:07.104Z,13.17
2022-10-03T05:08:38.938Z,12.90
2022-10-03T05:11:18.880Z,12.27
2022-10-03T05:14:05.715Z,11.97
2022-10-03T05:16:43.126Z,11.67
2022-10-03T05:19:29.419Z,12.70
2022-10-03T05:22:00.347Z,12.53
2022-10-03T05:24:38.190Z,13.20
2022-10-03T05:27:25.762Z,12.87
2022-10-03T05:29:59.717Z,12.80
2022-10-03T05:32:31.997Z,20.93
2022-10-03T05:35:26.255Z,38.70
2022-10-03T05:37:53.429Z,84.77
2022-10-03T05:40:28.498Z,92.60
2022-10-03T05:43:12.407Z,72.73
2022-10-03T05:45:39.628Z,69.77
2022-10-03T05:48:07.052Z,20.27
2022-10-03T05:50:38.446Z,51.90
2022-10-03T05:53:21.042Z,38.37
2022-10-03T05:56:00.844Z,18.33
2022-10-03T05:58:47.094Z,15.47
2022-10-03T06:01:23.499Z,16.80
2022-10-03T06:04:06.112Z,18.77
2022-10-03T06:06:33.760Z,20.77
2022-10-03T06:09:07.038Z,17.13
2022-10-03T06:11:40.697Z,13.93
2022-10-03T06:14:08.398Z,15.07
2022-10-03T06:16:45.032Z,15.00
2022-10-03T06:19:17.234Z,17.47
2022-10-03T06:21:47.503Z,16.80
2022-10-03T06:24:21.208Z,14.37
2022-10-03T06:26:59.858Z,14.03
2022-10-03T06:29:46.438Z,15.40
2022-10-03T06:32:31.892Z,16.93
2022-10-03T06:35:30.902Z,15.10
2022-10-03T06:38:01.471Z,16.87
2022-10-03T06:40:48.510Z,17.47
2022-10-03T06:43:19.399Z,19.00
2022-10-03T06:46:05.441Z,16.63
2022-10-03T06:48:44.915Z,16.03
2022-10-03T06:51:15.735Z,16.10
2022-10-03T06:53:55.648Z,22.87
2022-10-03T06:56:44.208Z,17.63
2022-10-03T06:59:22.903Z,17.33
2022-10-03T07:01:50.842Z,18.73
2022-10-03T07:04:24.409Z,20.00
2022-10-03T07:06:54.572Z,16.87
2022-10-03T07:09:40.764Z,14.83
2022-10-03T07:12:34.961Z,17.23
2022-10-03T07:15:38.080Z,16.23
2022-10-03T07:18:15.933Z,13.83
2022-10-03T07:20:59.335Z,14.17
2022-10-03T07:23:32.908Z,13.97
2022-10-03T07:26:18.893Z,16.33
2022-10-03T07:29:04.915Z,17.20
2022-10-03T07:31:34.923Z,14.77
2022-10-03T07:34:34.889Z,15.43
2022-10-03T07:37:29.845Z,16.57
2022-10-03T07:40:13.629Z,15.67
2022-10-03T07:42:46.081Z,17.23
2022-10-03T07:45:34.852Z,13.47
2022-10-03T07:48:13.165Z,14.50
2022-10-03T07:50:59.439Z,13.20
2022-10-03T07:53:45.623Z,13.73
2022-10-03T07:56:25.496Z,13.80
2022-10-03T07:58:53.302Z,20.13
2022-10-03T08:01:39.615Z,16.73
2022-10-03T08:04:10.238Z,14.40
2022-10-03T08:06:42.350Z,15.43
2022-10-03T08:09:18.900Z,11.70
2022-10-03T08:12:05.437Z,16.00
2022-10-03T08:14:39.690Z,11.93
2022-10-03T08:17:25.811Z,11.20
2022-10-03T08:19:53.186Z,9.57
2022-10-03T08:22:20.378Z,9.93
2022-10-03T08:24:47.949Z,10.50
2022-10-03T08:27:24.339Z,10.87
2022-10-03T08:29:57.674Z,7.90
2022-10-03T08:32:36.688Z,11.77
2022-10-03T08:35:21.802Z,13.57
2022-10-03T08:37:55.835Z,12.43
2022-10-03T08:40:41.775Z,12.03
2022-10-03T08:43:28.039Z,8.13
2022-10-03T08:46:01.576Z,10.57
2022-10-03T08:48:49.018Z,12.53
2022-10-03T08:51:26.325Z,7.63
2022-10-03T08:54:03.936Z,6.93
2022-10-03T08:56:42.752Z,8.30
2022-10-03T08:59:10.053Z,8.48
2022-10-03T09:01:43.875Z,8.70
2022-10-03T09:04:30.553Z,8.50
2022-10-03T09:07:17.925Z,11.90
2022-10-03T09:10:08.328Z,7.85
2022-10-03T09:12:35.881Z,10.87
2022-10-03T09:15:12.436Z,7.50
2022-10-03T09:17:42.826Z,8.03
2022-10-03T09:20:13.645Z,9.37
2022-10-03T09:22:47.142Z,6.43
2022-10-03T09:25:35.070Z,7.90
2022-10-03T09:28:05.593Z,6.80
2022-10-03T09:30:32.820Z,8.33
2022-10-03T09:33:09.313Z,8.50
2022-10-03T09:35:36.593Z,9.07
2022-10-03T09:38:03.776Z,5.03
2022-10-03T09:40:37.125Z,6.80
2022-10-03T09:43:04.327Z,5.57
2022-10-03T09:45:50.623Z,4.73
2022-10-03T09:48:45.393Z,8.43
2022-10-03T09:51:22.103Z,7.70
2022-10-03T09:54:19.800Z,5.95
2022-10-03T09:56:56.456Z,7.05
2022-10-03T09:59:23.800Z,6.32
2022-10-03T10:02:09.697Z,6.65
2022-10-03T10:04:54.153Z,7.10
2022-10-03T10:07:37.558Z,6.88
2022-10-03T10:10:12.867Z,10.13
2022-10-03T10:12:40.241Z,5.90
2022-10-03T10:15:19.086Z,6.47
2022-10-03T10:18:18.085Z,4.82
2022-10-03T10:20:48.409Z,6.15
2022-10-03T10:23:15.636Z,7.80
2022-10-03T10:26:01.953Z,4.72
2022-10-03T10:28:47.642Z,6.50
2022-10-03T10:31:17.911Z,5.00
2022-10-03T10:33:48.334Z,3.80
2022-10-03T10:36:34.597Z,5.47
2022-10-03T10:39:04.964Z,9.60
2022-10-03T10:41:46.535Z,6.75
2022-10-03T10:44:32.763Z,6.88
2022-10-03T10:47:03.727Z,5.10
2022-10-03T10:49:33.993Z,7.20
2022-10-03T10:52:19.891Z,5.53
2022-10-03T10:54:56.697Z,11.23
2022-10-03T10:57:30.341Z,8.07
2022-10-03T11:00:16.418Z,6.45
2022-10-03T11:02:46.955Z,7.55
2022-10-03T11:05:17.611Z,6.80
2022-10-03T11:07:54.136Z,3.63
2022-10-03T11:10:34.949Z,3.78
2022-10-03T11:13:24.466Z,7.20
2022-10-03T11:16:15.469Z,6.30
2022-10-03T11:18:56.356Z,6.05
2022-10-03T11:21:34.836Z,3.92
2022-10-03T11:24:07.478Z,4.75
2022-10-03T11:26:56.893Z,6.85
2022-10-03T11:29:34.387Z,5.32
2022-10-03T11:32:20.674Z,5.78
2022-10-03T11:35:00.760Z,4.40
2022-10-03T11:37:42.862Z,4.32
2022-10-03T11:40:31.104Z,5.65
2022-10-03T11:43:01.588Z,4.07
2022-10-03T11:45:36.850Z,4.80
2022-10-03T11:48:17.107Z,3.75
2022-10-03T11:54:36.228Z,5.18
2022-10-03T11:57:14.533Z,4.47
2022-10-03T12:00:10.759Z,5.78
2022-10-03T12:02:44.398Z,4.18
2022-10-03T12:05:15.023Z,2.67
2022-10-03T12:08:14.708Z,5.15
2022-10-03T12:11:00.920Z,3.65
2022-10-03T12:13:40.141Z,4.30
2022-10-03T12:16:13.095Z,3.58
2022-10-03T12:18:44.223Z,5.00
2022-10-03T12:21:14.778Z,3.20
2022-10-03T12:23:56.151Z,3.92
2022-10-03T12:26:29.717Z,3.05
2022-10-03T12:28:59.204Z,4.35
2022-10-03T12:31:38.730Z,3.92
2022-10-03T12:34:41.914Z,2.78
2022-10-03T12:37:27.149Z,5.57
2022-10-03T12:40:07.270Z,6.47
2022-10-03T12:42:38.093Z,3.67
2022-10-03T12:45:12.284Z,2.75
2022-10-03T12:47:55.346Z,6.15
2022-10-03T12:50:33.701Z,2.50
2022-10-03T12:53:13.640Z,3.55
2022-10-03T12:55:45.400Z,4.53
2022-10-03T12:58:31.701Z,2.67
2022-10-03T13:01:01.994Z,4.00
2022-10-03T13:03:52.292Z,6.93
2022-10-03T13:06:38.815Z,3.58
2022-10-03T13:09:10.783Z,3.75
2022-10-03T13:12:06.527Z,2.63
2022-10-03T13:14:41.481Z,4.90
2022-10-03T13:17:14.790Z,4.60
2022-10-03T13:19:55.882Z,4.63
2022-10-03T13:22:26.208Z,3.38
2022-10-03T13:25:02.798Z,3.40
2022-10-03T13:27:33.367Z,3.70
2022-10-03T13:30:14.410Z,4.90
2022-10-03T13:32:43.757Z,4.93
2022-10-03T13:35:38.897Z,4.90
2022-10-03T13:38:23.689Z,4.72
2022-10-03T13:40:57.570Z,3.00
2022-10-03T13:43:28.849Z,4.43
2022-10-03T13:45:57.233Z,4.63
2022-10-03T13:48:27.574Z,4.38
2022-10-03T13:51:07.300Z,4.00
2022-10-03T13:53:53.301Z,4.43
2022-10-03T13:56:40.055Z,4.15
2022-10-03T13:59:39.854Z,5.60
2022-10-03T14:02:27.277Z,4.68
2022-10-03T14:05:14.109Z,3.97
2022-10-03T14:07:44.377Z,2.92
2022-10-03T14:10:32.981Z,3.78
2022-10-03T14:13:20.797Z,4.10
2022-10-03T14:15:58.380Z,3.45
2022-10-03T14:18:38.912Z,3.53
2022-10-03T14:21:09.232Z,3.13
2022-10-03T14:23:42.245Z,3.13
2022-10-03T14:26:18.647Z,2.55
2022-10-03T14:28:52.837Z,2.60
2022-10-03T14:31:39.135Z,5.10
2022-10-03T14:34:25.598Z,3.67
2022-10-03T14:36:56.503Z,6.28
2022-10-03T14:39:36.446Z,4.75
2022-10-03T14:42:04.418Z,2.97
2022-10-03T14:44:37.911Z,2.88
2022-10-03T14:47:13.298Z,2.92
2022-10-03T14:49:57.551Z,3.45
2022-10-03T14:52:28.672Z,6.88
2022-10-03T14:54:57.371Z,2.45
2022-10-03T14:57:43.659Z,4.55
2022-10-03T15:00:34.858Z,4.57
2022-10-03T15:03:38.796Z,4.82
2022-10-03T15:06:20.890Z,3.42
2022-10-03T15:08:50.648Z,4.03
2022-10-03T15:11:24.149Z,7.22
2022-10-03T15:13:55.091Z,3.90
2022-10-03T15:16:23.295Z,4.38
2022-10-03T15:18:52.953Z,2.88
2022-10-03T15:21:20.247Z,4.05
2022-10-03T15:23:47.945Z,4.32
2022-10-03T15:26:19.018Z,2.97
2022-10-03T15:28:48.314Z,3.28
2022-10-03T15:31:35.879Z,5.22
2022-10-03T15:34:06.203Z,4.75
2022-10-03T15:36:37.855Z,3.90
2022-10-03T15:39:23.968Z,5.25
2022-10-03T15:42:08.023Z,6.10
2022-10-03T15:44:40.196Z,5.30
2022-10-03T15:47:14.056Z,3.65
2022-10-03T15:49:50.901Z,3.67
2022-10-03T15:52:20.282Z,4.32
2022-10-03T15:55:14.372Z,3.00
2022-10-03T15:57:45.478Z,3.33
2022-10-03T16:00:33.093Z,7.45
2022-10-03T16:03:15.707Z,3.67
2022-10-03T16:06:03.197Z,5.93
2022-10-03T16:08:32.105Z,3.95
2022-10-03T16:11:19.140Z,4.25
2022-10-03T16:13:49.467Z,4.97
2022-10-03T16:16:24.362Z,9.27
2022-10-03T16:19:14.766Z,5.90
2022-10-03T16:21:42.432Z,4.78
2022-10-03T16:24:20.392Z,8.20
2022-10-03T16:26:56.334Z,5.20
2022-10-03T16:29:26.266Z,6.22
2022-10-03T16:31:59.027Z,5.20
2022-10-03T16:34:27.263Z,5.93
2022-10-03T16:36:54.996Z,5.25
2022-10-03T16:39:27.831Z,6.65
2022-10-03T16:41:55.703Z,7.20
2022-10-03T16:44:23.058Z,8.50
2022-10-03T16:46:51.630Z,5.35
2022-10-03T16:49:55.886Z,6.50
2022-10-03T16:52:32.447Z,5.65
2022-10-03T16:55:02.979Z,6.72
2022-10-03T16:57:33.825Z,6.40
2022-10-03T17:00:08.268Z,9.30
2022-10-03T17:02:39.019Z,8.30
2022-10-03T17:05:10.957Z,7.57
2022-10-03T17:07:43.303Z,14.23
2022-10-03T17:10:30.311Z,14.37
2022-10-03T17:13:03.594Z,13.60
2022-10-03T17:15:37.095Z,8.30
2022-10-03T17:18:04.516Z,9.33
2022-10-03T17:20:38.404Z,8.70
2022-10-03T17:23:10.555Z,10.17
2022-10-03T17:25:37.944Z,7.00
2022-10-03T17:28:06.859Z,13.60
2022-10-03T17:30:39.094Z,7.93
2022-10-03T17:33:14.364Z,10.30
2022-10-03T17:35:47.169Z,128.73
2022-10-03T17:38:48.354Z,25.87
2022-10-03T17:41:16.602Z,19.93
2022-10-03T17:43:51.164Z,13.10
2022-10-03T17:46:18.464Z,9.20
2022-10-03T17:49:22.013Z,12.63
2022-10-03T17:51:50.872Z,11.93
2022-10-03T17:54:20.893Z,9.00
2022-10-03T17:56:55.777Z,9.97
2022-10-03T17:59:29.842Z,12.97
2022-10-03T18:01:59.675Z,10.03
2022-10-03T18:04:36.889Z,7.70
2022-10-03T18:07:16.567Z,12.47
2022-10-03T18:09:47.464Z,10.33
2022-10-03T18:12:25.748Z,11.33
2022-10-03T18:15:02.654Z,9.90
2022-10-03T18:17:39.698Z,6.30
2022-10-03T18:20:26.724Z,14.47
2022-10-03T18:22:58.012Z,10.67
2022-10-03T18:26:18.694Z,8.17
2022-10-03T18:28:57.691Z,11.80
2022-10-03T18:31:26.031Z,14.10
2022-10-03T18:33:59.515Z,15.70
2022-10-03T18:36:28.579Z,11.17
2022-10-03T18:38:59.997Z,10.23
2022-10-03T18:41:27.525Z,7.50
2022-10-03T18:43:59.875Z,9.33
2022-10-03T18:46:30.330Z,10.40
2022-10-03T18:49:30.115Z,7.20
2022-10-03T18:51:52.693Z,8.10
2022-10-03T18:54:33.633Z,7.73
2022-10-03T18:57:16.192Z,9.33
2022-10-03T18:59:52.897Z,10.33
2022-10-03T19:02:25.592Z,12.67
2022-10-03T19:04:55.138Z,12.33
2022-10-03T19:07:31.917Z,12.33
2022-10-03T19:10:35.159Z,8.67
2022-10-03T19:13:06.317Z,12.60
2022-10-03T19:15:38.667Z,10.97
2022-10-03T19:18:33.856Z,10.07
2022-10-03T19:21:04.310Z,10.17
2022-10-03T19:23:31.587Z,10.23
2022-10-03T19:26:02.484Z,9.17
2022-10-03T19:28:34.852Z,8.63
2022-10-03T19:31:22.352Z,12.00
2022-10-03T19:33:51.236Z,9.67
2022-10-03T19:36:21.905Z,10.03
2022-10-03T19:38:49.900Z,9.13
2022-10-03T19:41:28.427Z,8.60
2022-10-03T19:43:57.007Z,9.97
2022-10-03T19:46:33.412Z,10.20
2022-10-03T19:49:03.813Z,10.63
2022-10-03T19:51:31.208Z,10.20
2022-10-03T19:53:59.979Z,10.70
2022-10-03T19:56:28.375Z,10.00
2022-10-03T19:59:16.384Z,8.43
2022-10-03T20:01:44.743Z,10.97
2022-10-03T20:04:12.782Z,8.83
2022-10-03T20:06:46.089Z,9.00
2022-10-03T20:09:27.269Z,9.03
2022-10-03T20:11:57.692Z,8.40
2022-10-03T20:14:30.110Z,11.23
2022-10-03T20:17:02.155Z,9.30
2022-10-03T20:19:55.953Z,9.40
2022-10-03T20:22:25.341Z,8.20
2022-10-03T20:24:52.788Z,8.63
2022-10-03T20:27:33.186Z,9.10
2022-10-03T20:30:00.505Z,9.20
2022-10-03T20:32:28.660Z,10.50
2022-10-03T20:34:58.555Z,10.63
2022-10-03T20:37:48.092Z,10.43
2022-10-03T20:40:31.003Z,8.03
2022-10-03T20:43:24.678Z,8.70
2022-10-03T20:46:04.124Z,8.73
2022-10-03T20:48:34.118Z,8.17
2022-10-03T20:51:01.669Z,6.73
2022-10-03T20:53:30.070Z,10.97
2022-10-03T20:56:01.035Z,11.07
2022-10-03T20:58:50.828Z,7.93
2022-10-03T21:01:20.474Z,8.13
2022-10-03T21:04:06.484Z,7.60
2022-10-03T21:06:37.309Z,5.90
2022-10-03T21:09:06.309Z,11.03
2022-10-03T21:11:34.185Z,8.67
2022-10-03T21:14:08.083Z,7.97
2022-10-03T21:16:39.834Z,11.70
2022-10-03T21:19:19.454Z,7.63
2022-10-03T21:21:49.243Z,14.13
2022-10-03T21:24:27.474Z,10.67
2022-10-03T21:26:59.188Z,10.37
2022-10-03T21:29:28.691Z,12.57
2022-10-03T21:32:05.234Z,10.07
2022-10-03T21:34:38.637Z,8.27
2022-10-03T21:37:08.845Z,10.20
2022-10-03T21:40:00.172Z,6.77
2022-10-03T21:42:42.729Z,8.47
2022-10-03T21:45:31.786Z,9.90
2022-10-03T21:48:05.597Z,10.33
2022-10-03T21:50:36.392Z,10.30
2022-10-03T21:53:16.302Z,8.53
2022-10-03T21:55:52.780Z,12.17
2022-10-03T21:58:29.780Z,9.17
2022-10-03T22:01:04.825Z,9.43
2022-10-03T22:03:41.743Z,8.50
2022-10-03T22:06:21.417Z,9.00
2022-10-03T22:08:49.502Z,7.70
2022-10-03T22:11:26.031Z,7.57
2022-10-03T22:14:13.592Z,8.07
2022-10-03T22:17:08.358Z,9.27
2022-10-03T22:19:46.541Z,11.23
2022-10-03T22:22:34.329Z,9.77
2022-10-03T22:25:25.420Z,8.53
2022-10-03T22:28:05.235Z,54.83
2022-10-03T22:30:34.741Z,27.73
2022-10-03T22:33:23.501Z,9.97
2022-10-03T22:35:55.497Z,14.43
2022-10-03T22:38:24.378Z,13.83
2022-10-03T22:40:51.829Z,11.60
2022-10-03T22:43:19.912Z,11.50
2022-10-03T22:45:49.749Z,6.00
2022-10-03T22:48:23.291Z,13.27
2022-10-03T22:50:51.818Z,26.07
2022-10-03T22:53:20.547Z,17.23
2022-10-03T22:55:49.764Z,35.10
2022-10-03T22:58:18.240Z,26.43
2022-10-03T23:00:46.833Z,26.23
2022-10-03T23:03:25.865Z,31.40
2022-10-03T23:06:11.948Z,6.23
2022-10-03T23:09:01.626Z,25.87
2022-10-03T23:11:30.440Z,29.03
2022-10-03T23:13:59.719Z,25.57
2022-10-03T23:16:44.230Z,23.20
2022-10-03T23:19:14.530Z,17.50
2022-10-03T23:21:49.400Z,14.67
2022-10-03T23:24:16.694Z,15.70
2022-10-03T23:27:07.135Z,18.13
2022-10-03T23:29:34.345Z,15.50
2022-10-03T23:32:01.602Z,13.83
2022-10-03T23:34:38.137Z,10.83
2022-10-03T23:37:15.593Z,11.77
2022-10-03T23:39:55.149Z,10.37
2022-10-03T23:42:27.026Z,11.37
2022-10-03T23:44:56.324Z,10.47
2022-10-03T23:47:28.891Z,11.63
2022-10-03T23:49:57.002Z,11.13
2022-10-03T23:52:28.464Z,6.17
2022-10-03T23:54:57.901Z,7.03
2022-10-03T23:57:31.604Z,8.10
2022-10-03T23:59:58.979Z,10.30
